createdAt,value
2022-12-14T00:01:38.444Z,9.45
2022-12-14T00:04:05.512Z,9.38
2022-12-14T00:06:33.999Z,8.52
2022-12-14T00:09:03.397Z,9.57
2022-12-14T00:11:30.513Z,9.00
2022-12-14T00:14:00.033Z,9.18
2022-12-14T00:16:29.952Z,10.02
2022-12-14T00:18:58.865Z,9.70
2022-12-14T00:21:26.984Z,9.88
2022-12-14T00:23:54.868Z,11.35
2022-12-14T00:26:27.872Z,9.48
2022-12-14T00:28:56.119Z,9.98
2022-12-14T00:31:24.564Z,9.20
2022-12-14T00:33:52.666Z,9.55
2022-12-14T00:36:20.481Z,9.25
2022-12-14T00:38:47.665Z,9.63
2022-12-14T00:41:14.632Z,10.18
2022-12-14T00:43:41.967Z,9.95
2022-12-14T00:46:09.157Z,10.38
2022-12-14T00:48:36.286Z,9.38
2022-12-14T00:51:04.400Z,10.55
2022-12-14T00:53:31.582Z,10.77
2022-12-14T00:56:06.423Z,8.65
2022-12-14T00:58:33.872Z,9.20
2022-12-14T01:01:12.733Z,8.70
2022-12-14T01:03:40.277Z,9.65
2022-12-14T01:06:14.769Z,9.80
2022-12-14T01:08:41.813Z,9.35
2022-12-14T01:11:10.761Z,8.70
2022-12-14T01:13:38.923Z,9.85
2022-12-14T01:16:13.274Z,9.82
2022-12-14T01:18:42.616Z,9.55
2022-12-14T01:21:13.923Z,9.80
2022-12-14T01:23:41.504Z,8.27
2022-12-14T01:26:09.131Z,9.43
2022-12-14T01:28:36.478Z,9.60
2022-12-14T01:31:14.515Z,10.90
2022-12-14T01:33:41.741Z,9.45
2022-12-14T01:36:14.862Z,8.75
2022-12-14T01:38:41.927Z,10.07
2022-12-14T01:41:17.233Z,9.27
2022-12-14T01:43:56.503Z,10.20
2022-12-14T01:46:49.720Z,10.93
2022-12-14T01:49:39.513Z,10.80
2022-12-14T01:52:18.234Z,9.18
2022-12-14T01:54:56.632Z,9.75
2022-12-14T01:57:32.945Z,9.88
2022-12-14T02:00:06.982Z,11.45
2022-12-14T02:02:38.218Z,10.05
2022-12-14T02:05:06.893Z,9.55
2022-12-14T02:07:34.545Z,9.32
2022-12-14T02:10:04.565Z,10.07
2022-12-14T02:12:41.913Z,10.40
2022-12-14T02:15:09.777Z,11.35
2022-12-14T02:17:36.789Z,11.00
2022-12-14T02:20:04.448Z,9.98
2022-12-14T02:22:50.121Z,9.75
2022-12-14T02:25:54.476Z,10.52
2022-12-14T02:29:05.353Z,10.73
2022-12-14T02:31:49.826Z,9.38
2022-12-14T02:34:57.834Z,11.40
2022-12-14T02:37:42.719Z,10.88
2022-12-14T02:40:34.764Z,9.68
2022-12-14T02:43:27.701Z,10.10
2022-12-14T02:45:57.376Z,9.82
2022-12-14T02:48:36.705Z,10.65
2022-12-14T02:51:11.788Z,9.77
2022-12-14T02:53:54.558Z,10.23
2022-12-14T02:56:29.762Z,9.90
2022-12-14T02:58:58.017Z,9.70
2022-12-14T03:01:28.888Z,9.77
2022-12-14T03:03:56.164Z,10.32
2022-12-14T03:06:28.109Z,10.63
2022-12-14T03:09:07.945Z,10.63
2022-12-14T03:11:51.508Z,9.95
2022-12-14T03:14:25.479Z,10.52
2022-12-14T03:16:53.798Z,10.00
2022-12-14T03:19:35.612Z,9.25
2022-12-14T03:22:08.580Z,11.20
2022-12-14T03:24:43.508Z,9.88
2022-12-14T03:27:36.178Z,11.85
2022-12-14T03:30:18.411Z,11.00
2022-12-14T03:32:59.387Z,11.88
2022-12-14T03:35:39.496Z,11.05
2022-12-14T03:38:20.846Z,10.50
2022-12-14T03:41:17.314Z,10.38
2022-12-14T03:43:58.122Z,10.18
2022-12-14T03:46:53.100Z,10.80
2022-12-14T03:49:44.299Z,10.27
2022-12-14T03:52:44.133Z,10.95
2022-12-14T03:55:32.278Z,12.18
2022-12-14T03:58:28.828Z,11.23
2022-12-14T04:01:11.099Z,10.45
2022-12-14T04:03:40.899Z,11.02
2022-12-14T04:06:45.587Z,10.93
2022-12-14T04:09:46.017Z,9.68
2022-12-14T04:13:03.804Z,11.75
2022-12-14T04:15:54.511Z,10.73
2022-12-14T04:18:47.643Z,9.90
2022-12-14T04:21:41.526Z,9.65
2022-12-14T04:24:40.126Z,9.38
2022-12-14T04:27:15.556Z,10.60
2022-12-14T04:29:56.541Z,10.43
2022-12-14T04:32:39.959Z,11.10
2022-12-14T04:35:13.990Z,10.02
2022-12-14T04:37:45.629Z,10.18
2022-12-14T04:40:24.230Z,11.45
2022-12-14T04:43:04.981Z,10.10
2022-12-14T04:45:48.969Z,10.40
2022-12-14T04:48:23.258Z,10.88
2022-12-14T04:50:58.477Z,10.95
2022-12-14T04:53:29.403Z,8.90
2022-12-14T04:56:09.337Z,10.60
2022-12-14T04:58:37.429Z,12.10
2022-12-14T05:01:26.047Z,9.65
2022-12-14T05:04:12.301Z,10.15
2022-12-14T05:06:45.982Z,9.57
2022-12-14T05:09:33.432Z,10.38
2022-12-14T05:12:28.618Z,10.63
2022-12-14T05:15:21.852Z,10.93
2022-12-14T05:17:48.962Z,10.93
2022-12-14T05:20:23.010Z,9.63
2022-12-14T05:22:50.180Z,10.50
2022-12-14T05:25:17.636Z,10.50
2022-12-14T05:27:44.660Z,10.57
2022-12-14T05:30:12.096Z,10.55
2022-12-14T05:32:40.020Z,10.52
2022-12-14T05:35:09.018Z,10.02
2022-12-14T05:37:35.992Z,10.57
2022-12-14T05:40:02.981Z,11.43
2022-12-14T05:42:30.100Z,11.48
2022-12-14T05:44:57.089Z,10.00
2022-12-14T05:47:24.490Z,11.00
2022-12-14T05:49:51.676Z,10.80
2022-12-14T05:52:19.199Z,10.57
2022-12-14T05:54:46.453Z,10.80
2022-12-14T05:57:13.401Z,10.00
2022-12-14T05:59:40.372Z,11.07
2022-12-14T06:02:07.693Z,9.25
2022-12-14T06:04:35.347Z,10.48
2022-12-14T06:07:02.393Z,12.05
2022-12-14T06:09:29.360Z,11.00
2022-12-14T06:11:56.396Z,10.35
2022-12-14T06:14:24.589Z,12.32
2022-12-14T06:16:51.544Z,10.20
2022-12-14T06:19:19.252Z,10.05
2022-12-14T06:21:46.374Z,10.05
2022-12-14T06:24:14.073Z,8.32
2022-12-14T06:26:41.312Z,11.15
2022-12-14T06:29:13.579Z,10.73
2022-12-14T06:31:40.604Z,10.95
2022-12-14T06:34:09.332Z,10.18
2022-12-14T06:36:39.018Z,9.80
2022-12-14T06:39:10.765Z,10.23
2022-12-14T06:41:37.980Z,9.50
2022-12-14T06:44:08.603Z,9.85
2022-12-14T06:46:36.816Z,11.52
2022-12-14T06:49:06.092Z,10.52
2022-12-14T06:51:38.274Z,10.38
2022-12-14T06:54:05.271Z,10.40
2022-12-14T06:56:32.197Z,10.95
2022-12-14T06:58:59.320Z,10.05
2022-12-14T07:01:26.581Z,10.35
2022-12-14T07:03:56.154Z,9.63
2022-12-14T07:06:24.989Z,8.73
2022-12-14T07:08:57.957Z,10.77
2022-12-14T07:11:26.476Z,9.90
2022-12-14T07:13:54.741Z,10.57
2022-12-14T07:16:26.266Z,9.98
2022-12-14T07:18:55.399Z,10.15
2022-12-14T07:21:23.165Z,10.68
2022-12-14T07:23:52.571Z,9.95
2022-12-14T07:26:25.988Z,10.23
2022-12-14T07:28:53.855Z,10.80
2022-12-14T07:31:26.459Z,11.05
2022-12-14T07:33:56.012Z,9.75
2022-12-14T07:36:25.164Z,8.00
2022-12-14T07:38:52.682Z,9.65
2022-12-14T07:41:23.477Z,9.52
2022-12-14T07:43:52.321Z,10.18
2022-12-14T07:46:22.322Z,8.73
2022-12-14T07:48:52.101Z,9.75
2022-12-14T07:51:21.640Z,9.70
2022-12-14T07:53:50.201Z,9.77
2022-12-14T07:56:26.039Z,9.57
2022-12-14T07:58:56.352Z,9.27
2022-12-14T08:01:26.841Z,11.00
2022-12-14T08:03:56.386Z,9.10
2022-12-14T08:06:27.102Z,11.70
2022-12-14T08:08:54.794Z,9.40
2022-12-14T08:11:23.003Z,9.80
2022-12-14T08:14:01.786Z,9.48
2022-12-14T08:16:29.583Z,11.52
2022-12-14T08:18:58.670Z,10.40
2022-12-14T08:21:26.784Z,9.85
2022-12-14T08:23:55.023Z,10.20
2022-12-14T08:26:22.331Z,10.00
2022-12-14T08:28:49.354Z,10.27
2022-12-14T08:31:19.166Z,9.18
2022-12-14T08:33:47.312Z,9.40
2022-12-14T08:36:17.319Z,10.93
2022-12-14T08:38:44.893Z,11.07
2022-12-14T08:41:15.365Z,11.38
2022-12-14T08:43:43.789Z,10.70
2022-12-14T08:46:11.344Z,10.15
2022-12-14T08:48:38.391Z,10.45
2022-12-14T08:51:08.175Z,9.43
2022-12-14T08:53:36.710Z,9.73
2022-12-14T08:56:12.837Z,10.00
2022-12-14T08:58:40.986Z,10.52
2022-12-14T09:01:27.024Z,10.30
2022-12-14T09:04:05.163Z,10.45
2022-12-14T09:06:34.930Z,9.63
2022-12-14T09:09:01.918Z,11.32
2022-12-14T09:11:29.478Z,11.48
2022-12-14T09:13:57.024Z,10.73
2022-12-14T09:16:28.832Z,11.48
2022-12-14T09:18:55.988Z,12.25
2022-12-14T09:21:24.170Z,11.75
2022-12-14T09:23:57.373Z,11.63
2022-12-14T09:26:27.207Z,10.85
2022-12-14T09:28:56.509Z,10.07
2022-12-14T09:31:26.162Z,11.63
2022-12-14T09:33:55.104Z,11.65
2022-12-14T09:36:27.474Z,10.00
2022-12-14T09:38:56.966Z,11.48
2022-12-14T09:41:36.471Z,10.80
2022-12-14T09:44:19.856Z,11.63
2022-12-14T09:46:47.634Z,11.75
2022-12-14T09:49:31.072Z,10.55
2022-12-14T09:52:02.049Z,11.00
2022-12-14T09:54:33.584Z,10.85
2022-12-14T09:57:29.481Z,10.70
2022-12-14T09:59:56.893Z,11.30
2022-12-14T10:02:51.400Z,10.15
2022-12-14T10:05:21.378Z,11.70
2022-12-14T10:08:19.308Z,10.00
2022-12-14T10:10:56.777Z,10.90
2022-12-14T10:13:42.427Z,11.80
2022-12-14T10:16:12.120Z,10.57
2022-12-14T10:19:03.506Z,13.25
2022-12-14T10:21:46.533Z,12.38
2022-12-14T10:24:27.541Z,11.77
2022-12-14T10:26:55.903Z,12.52
2022-12-14T10:29:25.972Z,11.63
2022-12-14T10:32:05.276Z,12.70
2022-12-14T10:34:34.925Z,11.00
2022-12-14T10:37:20.378Z,11.82
2022-12-14T10:40:40.803Z,11.45
2022-12-14T10:43:31.228Z,10.85
2022-12-14T10:46:24.318Z,11.30
2022-12-14T10:49:22.177Z,11.70
2022-12-14T10:52:02.517Z,12.65
2022-12-14T10:55:03.405Z,12.73
2022-12-14T10:57:33.531Z,10.95
2022-12-14T11:00:23.930Z,12.35
2022-12-14T11:02:59.157Z,11.93
2022-12-14T11:05:44.068Z,13.13
2022-12-14T11:08:43.405Z,13.18
2022-12-14T11:11:46.711Z,13.10
2022-12-14T11:14:19.577Z,12.50
2022-12-14T11:16:59.313Z,11.70
2022-12-14T11:19:28.277Z,12.57
2022-12-14T11:22:22.288Z,13.05
2022-12-14T11:24:50.482Z,12.63
2022-12-14T11:27:24.664Z,12.93
2022-12-14T11:29:59.895Z,11.75
2022-12-14T11:32:36.411Z,12.07
2022-12-14T11:35:07.429Z,12.80
2022-12-14T11:37:38.159Z,11.27
2022-12-14T11:40:30.207Z,11.98
2022-12-14T11:43:07.679Z,13.10
2022-12-14T11:45:47.510Z,13.98
2022-12-14T11:48:47.884Z,13.05
2022-12-14T11:51:31.042Z,13.57
2022-12-14T11:57:22.190Z,13.13
2022-12-14T12:00:33.885Z,13.77
2022-12-14T12:03:07.001Z,10.55
2022-12-14T12:05:45.672Z,13.73
2022-12-14T12:08:33.032Z,12.65
2022-12-14T12:11:17.638Z,11.93
2022-12-14T12:14:15.900Z,13.63
2022-12-14T12:17:04.470Z,14.15
2022-12-14T12:19:50.007Z,12.13
2022-12-14T12:22:33.936Z,12.95
2022-12-14T12:25:29.723Z,12.73
2022-12-14T12:28:48.110Z,13.15
2022-12-14T12:31:44.567Z,12.65
2022-12-14T12:34:33.351Z,13.73
2022-12-14T12:37:45.795Z,12.45
2022-12-14T12:41:07.334Z,12.02
2022-12-14T12:44:06.945Z,12.18
2022-12-14T12:49:56.050Z,13.23
2022-12-14T12:52:48.411Z,13.35
2022-12-14T12:55:25.936Z,12.32
2022-12-14T12:58:06.066Z,11.70
2022-12-14T13:00:33.961Z,11.88
2022-12-14T13:03:23.308Z,13.20
2022-12-14T13:05:53.491Z,12.05
2022-12-14T13:08:30.309Z,13.23
2022-12-14T13:11:25.613Z,11.93
2022-12-14T13:13:59.179Z,11.45
2022-12-14T13:16:39.446Z,12.32
2022-12-14T13:19:48.805Z,13.52
2022-12-14T13:22:15.354Z,12.65
2022-12-14T13:24:59.247Z,12.40
2022-12-14T13:27:38.119Z,12.65
2022-12-14T13:30:23.084Z,12.70
2022-12-14T13:33:17.384Z,11.82
2022-12-14T13:36:07.085Z,12.18
2022-12-14T13:38:52.145Z,13.75
2022-12-14T13:41:22.191Z,13.43
2022-12-14T13:44:10.172Z,12.10
2022-12-14T13:46:37.476Z,12.10
2022-12-14T13:49:09.428Z,13.50
2022-12-14T13:51:38.663Z,12.38
2022-12-14T13:54:30.212Z,11.75
2022-12-14T13:57:21.379Z,12.60
2022-12-14T13:59:53.746Z,12.10
2022-12-14T14:02:29.987Z,12.23
2022-12-14T14:05:15.455Z,12.30
2022-12-14T14:08:26.341Z,11.35
2022-12-14T14:11:13.900Z,13.68
2022-12-14T14:13:45.197Z,12.30
2022-12-14T14:16:28.519Z,12.13
2022-12-14T14:19:03.069Z,13.50
2022-12-14T14:21:58.876Z,12.90
2022-12-14T14:24:28.603Z,13.00
2022-12-14T14:27:11.745Z,13.68
2022-12-14T14:29:49.403Z,13.55
2022-12-14T14:32:42.201Z,11.75
2022-12-14T14:35:24.553Z,13.23
2022-12-14T14:38:02.170Z,12.88
2022-12-14T14:41:06.528Z,12.38
2022-12-14T14:43:25.579Z,11.90
2022-12-14T14:45:55.627Z,12.90
2022-12-14T14:48:36.839Z,13.32
2022-12-14T14:51:20.725Z,12.40
2022-12-14T14:53:50.510Z,13.15
2022-12-14T14:56:29.982Z,12.45
2022-12-14T14:59:18.018Z,15.70
2022-12-14T15:02:01.020Z,14.18
2022-12-14T15:04:57.075Z,13.52
2022-12-14T15:07:30.206Z,13.15
2022-12-14T15:10:22.702Z,14.65
2022-12-14T15:12:57.321Z,14.68
2022-12-14T15:15:32.727Z,14.23
2022-12-14T15:18:15.416Z,14.05
2022-12-14T15:20:54.931Z,15.40
2022-12-14T15:23:23.005Z,14.00
2022-12-14T15:26:02.277Z,13.13
2022-12-14T15:28:29.817Z,14.02
2022-12-14T15:30:58.691Z,15.60
2022-12-14T15:33:34.337Z,14.30
2022-12-14T15:36:14.178Z,12.32
2022-12-14T15:38:52.910Z,14.02
2022-12-14T15:41:21.268Z,14.52
2022-12-14T15:43:53.758Z,14.00
2022-12-14T15:46:34.481Z,15.68
2022-12-14T15:49:09.055Z,15.13
2022-12-14T15:51:42.715Z,14.75
2022-12-14T15:54:19.912Z,14.48
2022-12-14T15:56:58.832Z,15.15
2022-12-14T15:59:31.578Z,15.80
2022-12-14T16:02:07.564Z,14.32
2022-12-14T16:04:37.149Z,15.63
2022-12-14T16:07:18.303Z,15.32
2022-12-14T16:09:55.316Z,16.20
2022-12-14T16:12:44.273Z,15.27
2022-12-14T16:15:25.896Z,14.30
2022-12-14T16:18:01.506Z,14.95
2022-12-14T16:20:32.677Z,14.52
2022-12-14T16:23:14.819Z,15.07
2022-12-14T16:26:01.378Z,14.50
2022-12-14T16:28:34.649Z,15.05
2022-12-14T16:31:18.121Z,15.75
2022-12-14T16:33:45.514Z,14.68
2022-12-14T16:36:25.921Z,14.88
2022-12-14T16:39:23.331Z,14.65
2022-12-14T16:41:58.590Z,16.52
2022-12-14T16:44:34.386Z,15.80
2022-12-14T16:47:01.521Z,15.52
2022-12-14T16:49:34.711Z,15.43
2022-12-14T16:52:17.386Z,14.63
2022-12-14T16:55:04.330Z,15.20
2022-12-14T16:57:31.437Z,17.25
2022-12-14T17:00:04.643Z,16.17
2022-12-14T17:02:40.907Z,14.55
2022-12-14T17:05:20.668Z,15.93
2022-12-14T17:07:47.771Z,15.18
2022-12-14T17:10:30.689Z,15.68
2022-12-14T17:13:04.219Z,15.20
2022-12-14T17:15:34.566Z,15.80
2022-12-14T17:18:05.274Z,16.63
2022-12-14T17:20:40.077Z,15.98
2022-12-14T17:23:10.410Z,14.20
2022-12-14T17:25:38.145Z,15.57
2022-12-14T17:28:23.313Z,15.80
2022-12-14T17:30:52.302Z,16.23
2022-12-14T17:33:20.054Z,16.10
2022-12-14T17:35:47.354Z,15.93
2022-12-14T17:38:20.014Z,16.55
2022-12-14T17:40:50.256Z,16.85
2022-12-14T17:43:26.722Z,18.13
2022-12-14T17:45:55.601Z,17.85
2022-12-14T17:48:23.220Z,14.93
2022-12-14T17:50:52.049Z,17.13
2022-12-14T17:53:26.461Z,15.77
2022-12-14T17:55:54.616Z,16.83
2022-12-14T17:58:25.494Z,16.35
2022-12-14T18:01:03.532Z,17.85
2022-12-14T18:03:36.662Z,17.45
2022-12-14T18:06:05.133Z,16.85
2022-12-14T18:08:33.080Z,18.15
2022-12-14T18:11:13.348Z,17.52
2022-12-14T18:13:42.552Z,16.48
2022-12-14T18:16:16.215Z,17.75
2022-12-14T18:18:45.961Z,18.40
2022-12-14T18:21:18.592Z,17.15
2022-12-14T18:23:47.738Z,16.60
2022-12-14T18:26:23.198Z,17.85
2022-12-14T18:28:54.838Z,17.88
2022-12-14T18:31:36.657Z,17.95
2022-12-14T18:34:05.474Z,18.05
2022-12-14T18:36:33.926Z,20.58
2022-12-14T18:39:01.902Z,18.77
2022-12-14T18:41:35.037Z,18.48
2022-12-14T18:44:03.334Z,18.90
2022-12-14T18:46:31.246Z,18.73
2022-12-14T18:48:58.881Z,20.02
2022-12-14T18:51:27.476Z,19.13
2022-12-14T18:53:59.216Z,18.25
2022-12-14T18:56:28.311Z,19.52
2022-12-14T18:58:56.815Z,17.90
2022-12-14T19:01:26.249Z,19.27
2022-12-14T19:03:54.886Z,20.20
2022-12-14T19:09:15.656Z,19.25
2022-12-14T19:11:44.921Z,18.85
2022-12-14T19:14:13.263Z,19.15
2022-12-14T19:16:41.592Z,21.98
2022-12-14T19:19:09.736Z,18.88
2022-12-14T19:21:37.824Z,21.00
2022-12-14T19:24:09.246Z,20.70
2022-12-14T19:26:39.652Z,20.00
2022-12-14T19:29:07.978Z,18.67
2022-12-14T19:31:35.964Z,20.17
2022-12-14T19:34:07.544Z,20.10
2022-12-14T19:36:37.436Z,19.90
2022-12-14T19:39:06.026Z,20.42
2022-12-14T19:41:34.264Z,21.48
2022-12-14T19:44:05.164Z,20.90
2022-12-14T19:46:33.604Z,20.08
2022-12-14T19:49:04.262Z,22.08
2022-12-14T19:51:32.330Z,20.48
2022-12-14T19:54:03.588Z,22.05
2022-12-14T19:56:32.628Z,20.65
2022-12-14T19:59:06.775Z,21.95
2022-12-14T20:01:41.948Z,21.00
2022-12-14T20:04:12.935Z,22.52
2022-12-14T20:06:41.217Z,21.25
2022-12-14T20:09:09.336Z,20.90
2022-12-14T20:11:37.588Z,24.35
2022-12-14T20:14:05.936Z,21.98
2022-12-14T20:16:34.396Z,21.35
2022-12-14T20:19:02.537Z,21.98
2022-12-14T20:21:34.835Z,23.35
2022-12-14T20:24:03.366Z,21.80
2022-12-14T20:26:33.394Z,22.23
2022-12-14T20:29:02.109Z,21.42
2022-12-14T20:31:30.309Z,22.08
2022-12-14T20:34:02.536Z,23.95
2022-12-14T20:36:32.128Z,21.10
2022-12-14T20:39:02.109Z,23.80
2022-12-14T20:41:32.527Z,23.17
2022-12-14T20:44:05.483Z,22.80
2022-12-14T20:46:38.940Z,21.55
2022-12-14T20:49:18.798Z,22.05
2022-12-14T20:51:48.502Z,21.40
2022-12-14T20:54:19.147Z,20.70
2022-12-14T20:56:49.419Z,24.10
2022-12-14T20:59:18.215Z,23.90
2022-12-14T21:01:51.851Z,23.77
2022-12-14T21:04:22.958Z,25.90
2022-12-14T21:06:50.945Z,26.13
2022-12-14T21:09:18.335Z,27.50
2022-12-14T21:12:06.966Z,24.48
2022-12-14T21:14:37.285Z,23.00
2022-12-14T21:17:06.396Z,23.90
2022-12-14T21:19:36.231Z,24.38
2022-12-14T21:22:05.984Z,22.83
2022-12-14T21:27:26.811Z,22.88
2022-12-14T21:29:55.436Z,24.63
2022-12-14T21:32:23.016Z,22.40
2022-12-14T21:34:50.634Z,25.58
2022-12-14T21:37:18.105Z,23.13
2022-12-14T21:39:52.248Z,25.35
2022-12-14T21:42:26.252Z,25.48
2022-12-14T21:44:54.503Z,23.75
2022-12-14T21:47:27.290Z,23.33
2022-12-14T21:49:55.272Z,24.05
2022-12-14T21:52:24.948Z,24.75
2022-12-14T21:54:51.958Z,25.50
2022-12-14T21:57:42.298Z,25.60
2022-12-14T22:00:10.621Z,21.02
2022-12-14T22:02:37.831Z,22.95
2022-12-14T22:05:05.381Z,23.40
2022-12-14T22:07:34.457Z,22.85
2022-12-14T22:10:01.501Z,21.48
2022-12-14T22:12:28.704Z,21.35
2022-12-14T22:14:55.816Z,21.63
2022-12-14T22:17:22.814Z,21.25
2022-12-14T22:19:51.080Z,22.80
2022-12-14T22:22:18.315Z,23.42
2022-12-14T22:24:48.835Z,22.88
2022-12-14T22:27:15.916Z,23.63
2022-12-14T22:29:42.883Z,23.83
2022-12-14T22:32:11.951Z,20.83
2022-12-14T22:34:39.078Z,22.95
2022-12-14T22:37:06.378Z,22.10
2022-12-14T22:39:33.396Z,21.60
2022-12-14T22:42:00.432Z,22.05
2022-12-14T22:44:27.524Z,22.25
2022-12-14T22:46:54.635Z,23.60
2022-12-14T22:49:21.675Z,24.85
2022-12-14T22:51:48.715Z,21.75
2022-12-14T22:54:27.569Z,23.13
2022-12-14T22:57:07.919Z,24.13
2022-12-14T22:59:42.016Z,23.67
2022-12-14T23:02:09.424Z,23.65
2022-12-14T23:04:38.149Z,23.27
2022-12-14T23:07:05.955Z,22.08
2022-12-14T23:09:52.528Z,21.83
2022-12-14T23:12:38.860Z,22.27
2022-12-14T23:15:25.055Z,23.30
2022-12-14T23:18:19.027Z,24.13
2022-12-14T23:21:04.615Z,22.08
2022-12-14T23:23:50.395Z,22.98
2022-12-14T23:26:36.255Z,23.60
2022-12-14T23:29:21.982Z,24.25
2022-12-14T23:32:07.845Z,25.55
2022-12-14T23:34:53.496Z,24.33
2022-12-14T23:37:38.939Z,22.17
2022-12-14T23:40:25.204Z,23.42
2022-12-14T23:43:10.705Z,23.55
2022-12-14T23:45:56.505Z,24.00
2022-12-14T23:48:42.124Z,22.48
2022-12-14T23:51:27.697Z,25.15
2022-12-14T23:54:13.398Z,24.25
2022-12-14T23:56:58.979Z,23.70
2022-12-14T23:59:44.347Z,25.15
